Senecaville, Ohio
Current Conditions -  °F | °C
As of 5:53 AM on Sunday 21 Dec 2014 (Local Time) from KZZV Reporting Station
Haze Haze  
Wind Chill: 29°   Ceiling: 2500
Heat Index: 29°   Visibility: 5mi
Dew Point: 24°   Wind: 3mph
Humidity: 82%   Direction: 340°NNW
Pressure: 30.3"   Gusts: NA
Location:  39.93°N, 81.46°W
Report Text: KZZV 211053Z AUTO 34003KT 5SM HZ OVC025 M02/M04 A3030 RMK AO2 SLP270 T10171044
Loading
Personal Weather Stations






























Interactive Weather Map New forecast layout! Learn more

10-Day Weather Forecast

Advertisements
Track Severe Weather on mobile